Watertown, New York
Current Conditions -  °F | °C
As of 8:56 AM on Sunday 25 Jan 2015 (Local Time) from KART Reporting Station
Clear Clear  
Wind Chill:   Ceiling: Unl
Heat Index: 11°   Visibility: 10mi
Dew Point:   Wind: 7mph
Humidity: 61%   Direction: 320°NW
Pressure: 29.85"   Gusts: NA
Location:  43.98°N, 75.91°W
Report Text: KART 251356Z AUTO 32006KT 10SM CLR M12/M18 A2985 RMK AO2 SLP117 T11171178
Loading
Personal Weather Stations






























Interactive Weather Map New forecast layout! Learn more

10-Day Weather Forecast

Advertisements
Track Severe Weather on mobile